createdAt,value
2019-02-05T00:03:58.998Z,-1.06
2019-02-05T00:09:05.089Z,-0.93
2019-02-05T00:14:30.828Z,-0.95
2019-02-05T00:19:35.212Z,-0.84
2019-02-05T00:24:39.583Z,-0.91
2019-02-05T00:29:43.931Z,-0.61
2019-02-05T00:34:48.304Z,-0.29
2019-02-05T00:39:53.054Z,-0.29
2019-02-05T00:44:57.443Z,-0.82
2019-02-05T00:50:01.795Z,-0.78
2019-02-05T00:55:09.424Z,-0.49
2019-02-05T01:00:31.229Z,-0.67
2019-02-05T01:05:35.507Z,-0.96
2019-02-05T01:10:39.958Z,-0.82
2019-02-05T01:15:44.367Z,-0.80
2019-02-05T01:20:48.692Z,-0.73
2019-02-05T01:25:53.265Z,-0.82
2019-02-05T01:30:57.655Z,-0.85
2019-02-05T01:36:02.075Z,-0.58
2019-02-05T01:41:06.472Z,-0.37
2019-02-05T01:46:11.396Z,-0.56
2019-02-05T01:51:15.707Z,-0.67
2019-02-05T01:56:20.154Z,-0.65
2019-02-05T02:01:24.989Z,-0.70
2019-02-05T02:06:29.386Z,-0.65
2019-02-05T02:11:33.711Z,-0.49
2019-02-05T02:16:38.406Z,-0.23
2019-02-05T02:21:42.826Z,-0.65
2019-02-05T02:26:52.049Z,-0.78
2019-02-05T02:31:53.248Z,-0.82
2019-02-05T02:36:57.609Z,-1.02
2019-02-05T02:42:02.005Z,-0.90
2019-02-05T02:47:06.383Z,-1.09
2019-02-05T02:52:10.757Z,-1.07
2019-02-05T02:57:15.111Z,-0.87
2019-02-05T03:02:19.943Z,-1.23
2019-02-05T03:07:24.515Z,-1.23
2019-02-05T03:12:28.883Z,-1.36
2019-02-05T03:17:33.247Z,-1.37
2019-02-05T03:22:37.725Z,-1.35
2019-02-05T03:27:42.110Z,-1.38
2019-02-05T03:32:46.478Z,-1.34
2019-02-05T03:37:51.201Z,-1.41
2019-02-05T03:42:55.773Z,-1.76
2019-02-05T03:48:02.075Z,-1.66
2019-02-05T03:53:15.421Z,-1.82
2019-02-05T03:58:31.732Z,-1.92
2019-02-05T04:03:54.389Z,-1.78
2019-02-05T04:09:20.026Z,-1.86
2019-02-05T04:14:50.189Z,-1.82
2019-02-05T04:20:20.520Z,-1.92
2019-02-05T04:25:32.189Z,-1.95
2019-02-05T04:31:03.854Z,-1.90
2019-02-05T04:36:26.266Z,-2.25
2019-02-05T04:41:42.360Z,-2.07
2019-02-05T04:47:10.672Z,-2.02
2019-02-05T04:52:22.164Z,-2.03
2019-02-05T04:57:35.315Z,-1.90
2019-02-05T05:02:42.877Z,-1.90
2019-02-05T05:08:02.356Z,-2.23
2019-02-05T05:13:07.276Z,-2.36
2019-02-05T05:18:11.633Z,-1.78
2019-02-05T05:23:16.212Z,-2.06
2019-02-05T05:28:20.622Z,-2.11
2019-02-05T05:33:25.065Z,-1.96
2019-02-05T05:38:29.438Z,-1.96
2019-02-05T05:43:33.815Z,-2.01
2019-02-05T05:48:38.217Z,-2.04
2019-02-05T05:53:43.692Z,-1.64
2019-02-05T05:58:48.053Z,-1.71
2019-02-05T06:03:52.476Z,-1.65
2019-02-05T06:08:57.000Z,-1.78
2019-02-05T06:14:01.389Z,-1.50
2019-02-05T06:19:05.899Z,-1.47
2019-02-05T06:24:10.376Z,-1.50
2019-02-05T06:29:14.869Z,-1.42
2019-02-05T06:34:19.280Z,-1.56
2019-02-05T06:39:23.763Z,-1.61
2019-02-05T06:44:28.080Z,-1.77
2019-02-05T06:49:32.510Z,-1.64
2019-02-05T06:54:36.871Z,-1.45
2019-02-05T06:59:41.248Z,-1.98
2019-02-05T07:04:45.779Z,-1.87
2019-02-05T07:09:50.158Z,-1.48
2019-02-05T07:14:54.520Z,-1.74
2019-02-05T07:19:58.894Z,-1.86
2019-02-05T07:25:03.375Z,-1.89
2019-02-05T07:30:17.360Z,-1.43
2019-02-05T07:35:21.929Z,-1.67
2019-02-05T07:40:26.564Z,-1.20
2019-02-05T07:45:30.964Z,-1.10
2019-02-05T07:50:35.329Z,-0.96
2019-02-05T07:55:40.087Z,-1.04
2019-02-05T08:00:44.519Z,-0.65
2019-02-05T08:05:49.085Z,-0.81
2019-02-05T08:10:54.004Z,-0.83
2019-02-05T08:15:58.392Z,-0.71
2019-02-05T08:21:02.853Z,-0.62
2019-02-05T08:26:07.217Z,-0.49
2019-02-05T08:31:11.722Z,-0.07
2019-02-05T08:36:16.180Z,-0.48
2019-02-05T08:41:20.544Z,-0.29
2019-02-05T08:46:24.904Z,-0.24
2019-02-05T08:51:29.470Z,-0.30
2019-02-05T08:56:33.847Z,-0.27
2019-02-05T09:01:39.286Z,0.50
2019-02-05T09:06:43.711Z,0.38
2019-02-05T09:11:48.086Z,0.77
2019-02-05T09:16:52.438Z,1.02
2019-02-05T09:21:56.836Z,1.02
2019-02-05T09:27:01.193Z,0.82
2019-02-05T09:32:05.921Z,1.07
2019-02-05T09:37:10.301Z,1.38
2019-02-05T09:42:14.649Z,1.27
2019-02-05T09:47:19.064Z,1.44
2019-02-05T09:52:23.483Z,1.69
2019-02-05T09:57:28.230Z,1.57
2019-02-05T10:02:32.634Z,1.83
2019-02-05T10:07:36.978Z,1.92
2019-02-05T10:12:42.427Z,1.99
2019-02-05T10:17:46.813Z,1.48
2019-02-05T10:22:52.997Z,2.17
2019-02-05T10:27:57.373Z,2.00
2019-02-05T10:33:01.989Z,1.80
2019-02-05T10:38:06.547Z,2.06
2019-02-05T10:43:10.988Z,2.01
2019-02-05T10:48:15.496Z,1.97
2019-02-05T10:53:19.858Z,2.19
2019-02-05T10:58:24.218Z,2.45
2019-02-05T11:03:28.572Z,2.46
2019-02-05T11:08:33.011Z,2.42
2019-02-05T11:13:37.403Z,2.34
2019-02-05T11:18:41.842Z,2.54
2019-02-05T11:23:46.266Z,2.85
2019-02-05T11:28:50.989Z,2.47
2019-02-05T11:33:55.450Z,2.53
2019-02-05T11:38:59.840Z,2.82
2019-02-05T11:44:04.251Z,2.80
2019-02-05T11:49:08.629Z,2.60
2019-02-05T11:54:13.027Z,2.97
2019-02-05T11:59:17.421Z,2.87
2019-02-05T12:04:21.811Z,2.86
2019-02-05T12:09:26.336Z,2.79
2019-02-05T12:14:30.792Z,3.08
2019-02-05T12:19:35.328Z,2.99
2019-02-05T12:24:39.723Z,3.15
2019-02-05T12:29:44.148Z,3.06
2019-02-05T12:34:48.507Z,3.16
2019-02-05T12:39:54.567Z,3.13
2019-02-05T12:44:58.961Z,2.95
2019-02-05T12:50:04.553Z,3.16
2019-02-05T12:55:14.099Z,3.03
2019-02-05T13:00:24.767Z,3.05
2019-02-05T13:05:29.241Z,3.23
2019-02-05T13:10:36.540Z,3.08
2019-02-05T13:15:40.916Z,3.27
2019-02-05T13:20:45.309Z,3.20
2019-02-05T13:25:49.678Z,3.21
2019-02-05T13:30:54.060Z,3.40
2019-02-05T13:35:58.535Z,3.26
2019-02-05T13:41:02.901Z,3.36
2019-02-05T13:46:07.454Z,3.37
2019-02-05T13:51:11.843Z,3.29
2019-02-05T13:56:16.197Z,3.28
2019-02-05T14:01:20.552Z,3.26
2019-02-05T14:06:24.970Z,3.09
2019-02-05T14:11:29.528Z,2.93
2019-02-05T14:16:34.046Z,3.19
2019-02-05T14:21:38.494Z,3.02
2019-02-05T14:26:42.991Z,3.00
2019-02-05T14:31:47.358Z,3.29
2019-02-05T14:36:51.785Z,2.94
2019-02-05T14:41:56.179Z,3.10
2019-02-05T14:47:00.592Z,3.01
2019-02-05T14:52:05.208Z,2.75
2019-02-05T14:57:09.734Z,2.77
2019-02-05T15:02:14.213Z,2.72
2019-02-05T15:07:18.633Z,2.72
2019-02-05T15:12:23.567Z,2.81
2019-02-05T15:17:28.045Z,2.78
2019-02-05T15:22:32.449Z,2.56
2019-02-05T15:27:36.836Z,2.54
2019-02-05T15:32:45.892Z,2.59
2019-02-05T15:37:50.247Z,2.57
2019-02-05T15:42:54.706Z,2.67
2019-02-05T15:47:59.237Z,2.59
2019-02-05T15:53:03.625Z,2.73
2019-02-05T15:58:08.789Z,2.72
2019-02-05T16:03:13.547Z,2.89
2019-02-05T16:08:18.002Z,2.81
2019-02-05T16:13:22.373Z,2.69
2019-02-05T16:18:26.907Z,3.12
2019-02-05T16:23:32.992Z,3.39
2019-02-05T16:28:37.399Z,3.56
2019-02-05T16:33:41.849Z,3.55
2019-02-05T16:38:46.421Z,3.48
2019-02-05T16:43:51.804Z,3.51
2019-02-05T16:48:56.623Z,3.36
2019-02-05T16:54:01.006Z,3.48
2019-02-05T16:59:06.105Z,3.32
2019-02-05T17:04:10.466Z,3.35
2019-02-05T17:09:15.312Z,3.38
2019-02-05T17:14:19.796Z,3.14
2019-02-05T17:19:24.253Z,3.26
2019-02-05T17:24:28.711Z,3.31
2019-02-05T17:29:33.075Z,3.17
2019-02-05T17:34:37.565Z,3.24
2019-02-05T17:39:41.947Z,3.32
2019-02-05T17:44:46.304Z,3.20
2019-02-05T17:49:51.011Z,3.20
2019-02-05T17:54:55.425Z,3.23
2019-02-05T17:59:59.906Z,3.30
2019-02-05T18:05:07.180Z,3.25
2019-02-05T18:10:14.530Z,3.38
2019-02-05T18:15:28.635Z,3.35
2019-02-05T18:20:33.029Z,3.24
2019-02-05T18:25:37.581Z,3.23
2019-02-05T18:30:42.157Z,3.17
2019-02-05T18:35:46.968Z,3.20
2019-02-05T18:40:51.337Z,2.57
2019-02-05T18:45:55.695Z,2.44
2019-02-05T18:51:00.158Z,2.41
2019-02-05T18:56:04.981Z,2.71
2019-02-05T19:01:09.537Z,2.48
2019-02-05T19:06:14.851Z,2.36
2019-02-05T19:11:19.251Z,2.21
2019-02-05T19:16:23.627Z,2.15
2019-02-05T19:21:28.041Z,1.91
2019-02-05T19:26:32.968Z,2.32
2019-02-05T19:31:39.583Z,2.38
2019-02-05T19:36:45.585Z,2.11
2019-02-05T19:41:49.956Z,2.12
2019-02-05T19:46:56.072Z,2.11
2019-02-05T19:52:03.290Z,2.10
2019-02-05T19:57:07.790Z,2.13
2019-02-05T20:02:12.771Z,1.97
2019-02-05T20:07:18.535Z,2.13
2019-02-05T20:12:24.535Z,2.03
2019-02-05T20:17:29.659Z,2.03
2019-02-05T20:22:34.024Z,1.98
2019-02-05T20:27:38.432Z,2.07
2019-02-05T20:32:42.783Z,2.00
2019-02-05T20:37:47.165Z,2.01
2019-02-05T20:42:52.109Z,1.96
2019-02-05T20:47:56.458Z,2.05
2019-02-05T20:53:00.843Z,2.01
2019-02-05T20:58:05.869Z,2.18
2019-02-05T21:03:10.251Z,2.13
2019-02-05T21:08:14.987Z,1.93
2019-02-05T21:13:19.399Z,2.17
2019-02-05T21:18:23.946Z,2.18
2019-02-05T21:23:28.334Z,2.19
2019-02-05T21:28:32.718Z,2.04
2019-02-05T21:33:37.180Z,2.20
2019-02-05T21:38:41.569Z,1.95
2019-02-05T21:43:45.916Z,1.99
2019-02-05T21:48:50.307Z,2.06
2019-02-05T21:53:54.690Z,1.96
2019-02-05T21:58:59.098Z,2.00
2019-02-05T22:04:03.620Z,1.97
2019-02-05T22:09:10.666Z,1.91
2019-02-05T22:14:15.331Z,2.03
2019-02-05T22:19:21.076Z,2.17
2019-02-05T22:24:26.485Z,2.04
2019-02-05T22:29:30.881Z,1.89
2019-02-05T22:34:39.243Z,1.86
2019-02-05T22:39:41.360Z,2.42
2019-02-05T22:44:45.726Z,2.47
2019-02-05T22:49:50.104Z,1.85
2019-02-05T22:54:54.499Z,1.73
2019-02-05T22:59:58.836Z,1.87
2019-02-05T23:05:15.123Z,1.83
2019-02-05T23:10:25.726Z,1.82
2019-02-05T23:15:30.221Z,1.84
2019-02-05T23:20:34.557Z,1.83
2019-02-05T23:25:38.909Z,1.72
2019-02-05T23:30:43.550Z,1.87
2019-02-05T23:35:48.180Z,1.90
2019-02-05T23:40:52.548Z,1.98
2019-02-05T23:46:01.436Z,1.82
2019-02-05T23:51:02.988Z,1.82
2019-02-05T23:56:07.535Z,1.94
